createdAt,value
2018-04-26T00:03:16.223Z,19.4
2018-04-26T00:08:10.549Z,19.4
2018-04-26T00:13:04.273Z,19.3
2018-04-26T00:17:58.459Z,19.2
2018-04-26T00:22:52.395Z,19.3
2018-04-26T00:27:46.075Z,19.3
2018-04-26T00:32:40.136Z,19.1
2018-04-26T00:37:34.219Z,19.1
2018-04-26T00:42:28.011Z,19
2018-04-26T00:47:22.305Z,18.9
2018-04-26T00:52:16.363Z,18.9
2018-04-26T00:57:14.331Z,18.7
2018-04-26T01:02:07.196Z,18.8
2018-04-26T01:07:00.916Z,18.6
2018-04-26T01:11:55.285Z,18.5
2018-04-26T01:16:49.552Z,18.5
2018-04-26T01:21:43.331Z,18.4
2018-04-26T01:26:37.270Z,18.5
2018-04-26T01:31:31.363Z,18.3
2018-04-26T01:36:25.275Z,18.2
2018-04-26T01:41:19.228Z,18.1
2018-04-26T01:46:13.325Z,18
2018-04-26T01:51:07.355Z,17.9
2018-04-26T01:56:01.623Z,18
2018-04-26T02:00:56.151Z,17.9
2018-04-26T02:05:50.179Z,18
2018-04-26T02:10:43.996Z,17.9
2018-04-26T02:15:38.102Z,18
2018-04-26T02:20:32.064Z,17.8
2018-04-26T02:25:26.102Z,17.7
2018-04-26T02:30:20.100Z,17.7
2018-04-26T02:35:13.644Z,17.5
2018-04-26T02:40:08.005Z,17.6
2018-04-26T02:45:02.138Z,17.5
2018-04-26T02:49:55.964Z,17.4
2018-04-26T02:54:50.539Z,17.3
2018-04-26T02:59:44.518Z,17.3
2018-04-26T03:04:38.932Z,17.4
2018-04-26T03:09:32.794Z,17.5
2018-04-26T03:14:27.198Z,17.4
2018-04-26T03:19:21.022Z,17.3
2018-04-26T03:24:14.842Z,17.1
2018-04-26T03:29:09.094Z,17
2018-04-26T03:34:02.817Z,16.9
2018-04-26T03:38:56.584Z,17
2018-04-26T03:43:50.525Z,17
2018-04-26T03:48:44.487Z,17
2018-04-26T03:53:38.465Z,16.8
2018-04-26T03:58:32.752Z,16.8
2018-04-26T04:03:26.460Z,16.9
2018-04-26T04:08:20.276Z,16.8
2018-04-26T04:13:14.790Z,16.9
2018-04-26T04:18:08.815Z,16.8
2018-04-26T04:23:03.401Z,16.8
2018-04-26T04:27:57.360Z,16.7
2018-04-26T04:32:51.490Z,16.7
2018-04-26T04:37:45.948Z,16.7
2018-04-26T04:42:39.658Z,16.6
2018-04-26T04:47:33.740Z,16.8
2018-04-26T04:52:28.002Z,16.9
2018-04-26T04:57:21.923Z,16.8
2018-04-26T05:02:15.765Z,16.9
2018-04-26T05:07:09.387Z,16.8
2018-04-26T05:12:03.324Z,16.9
2018-04-26T05:16:57.370Z,16.9
2018-04-26T05:21:51.282Z,16.8
2018-04-26T05:26:45.723Z,17
2018-04-26T05:31:39.668Z,17
2018-04-26T05:36:33.902Z,17
2018-04-26T05:41:27.602Z,17.1
2018-04-26T05:46:22.043Z,17.2
2018-04-26T05:51:15.994Z,17.1
2018-04-26T05:56:10.157Z,17.2
2018-04-26T06:01:04.301Z,17.4
2018-04-26T06:05:58.511Z,17.5
2018-04-26T06:10:52.085Z,17.5
2018-04-26T06:15:46.355Z,17.6
2018-04-26T06:20:40.214Z,17.7
2018-04-26T06:25:34.677Z,17.8
2018-04-26T06:30:28.396Z,17.8
2018-04-26T06:35:22.448Z,18
2018-04-26T06:40:16.580Z,18.1
2018-04-26T06:45:10.572Z,18.1
2018-04-26T06:50:05.203Z,18.3
2018-04-26T06:54:58.957Z,18.3
2018-04-26T06:59:52.925Z,18.3
2018-04-26T07:04:47.241Z,18.4
2018-04-26T07:09:41.810Z,18.7
2018-04-26T07:14:35.544Z,18.6
2018-04-26T07:19:29.600Z,18.8
2018-04-26T07:24:23.512Z,18.8
2018-04-26T07:29:16.950Z,18.9
2018-04-26T07:34:11.215Z,19.1
2018-04-26T07:39:04.984Z,19.1
2018-04-26T07:43:59.602Z,19.3
2018-04-26T07:48:54.050Z,19.3
2018-04-26T07:53:48.522Z,19.4
2018-04-26T07:58:42.959Z,19.6
2018-04-26T08:03:37.363Z,19.6
2018-04-26T08:08:31.092Z,19.6
2018-04-26T08:13:25.436Z,19.8
2018-04-26T08:18:19.450Z,19.9
2018-04-26T08:23:13.544Z,20
2018-04-26T08:28:08.176Z,20.2
2018-04-26T08:33:02.053Z,20.3
2018-04-26T08:37:56.787Z,20.4
2018-04-26T08:42:51.330Z,20.6
2018-04-26T08:47:45.256Z,20.8
2018-04-26T08:52:40.075Z,20.9
2018-04-26T08:57:34.340Z,21.2
2018-04-26T09:02:28.658Z,21.1
2018-04-26T09:07:22.731Z,21.3
2018-04-26T09:12:17.058Z,21.5
2018-04-26T09:17:11.899Z,21.6
2018-04-26T09:22:05.733Z,21.7
2018-04-26T09:27:00.249Z,21.8
2018-04-26T09:31:54.268Z,22.1
2018-04-26T09:36:48.878Z,22.3
2018-04-26T09:41:43.155Z,22.4
2018-04-26T09:46:37.174Z,22.7
2018-04-26T09:51:31.533Z,22.9
2018-04-26T09:56:25.980Z,23.2
2018-04-26T10:01:20.847Z,23.4
2018-04-26T10:06:15.409Z,23.9
2018-04-26T10:11:10.129Z,23.9
2018-04-26T10:16:04.157Z,24
2018-04-26T10:20:58.753Z,24.1
2018-04-26T10:25:52.856Z,24.3
2018-04-26T10:30:47.339Z,24.2
2018-04-26T10:35:41.838Z,24.4
2018-04-26T10:40:35.863Z,24.6
2018-04-26T10:45:29.944Z,24.7
2018-04-26T10:50:24.492Z,24.8
2018-04-26T10:55:18.965Z,25
2018-04-26T11:00:12.969Z,25.3
2018-04-26T11:05:07.538Z,25.5
2018-04-26T11:10:01.750Z,25.4
2018-04-26T11:14:55.732Z,25.5
2018-04-26T11:19:50.326Z,25.7
2018-04-26T11:24:45.009Z,25.9
2018-04-26T11:29:39.606Z,26.1
2018-04-26T11:34:33.055Z,26.3
2018-04-26T11:39:27.736Z,26.5
2018-04-26T11:44:22.105Z,26.7
2018-04-26T11:49:16.357Z,27
2018-04-26T11:54:10.840Z,27.1
2018-04-26T11:59:04.986Z,27.2
2018-04-26T12:03:58.313Z,27.3
2018-04-26T12:08:52.079Z,27
2018-04-26T12:13:46.921Z,27.5
2018-04-26T12:18:40.809Z,27.6
2018-04-26T12:23:34.779Z,27.4
2018-04-26T12:28:28.591Z,26.9
2018-04-26T12:33:22.760Z,26.8
2018-04-26T12:38:16.993Z,26.5
2018-04-26T12:43:10.613Z,26.3
2018-04-26T12:48:04.764Z,26.2
2018-04-26T12:52:58.131Z,26.1
2018-04-26T12:57:51.570Z,25.8
2018-04-26T13:02:45.471Z,25.6
2018-04-26T13:07:39.450Z,25.3
2018-04-26T13:12:33.320Z,25.3
2018-04-26T13:17:27.283Z,25.3
2018-04-26T13:22:21.992Z,25.4
2018-04-26T13:27:16.600Z,25.5
2018-04-26T13:32:10.471Z,25.5
2018-04-26T13:37:04.790Z,25.6
2018-04-26T13:41:58.853Z,25.7
2018-04-26T13:46:52.669Z,25.8
2018-04-26T13:51:47.370Z,26.2
2018-04-26T13:56:42.476Z,26.9
2018-04-26T14:01:36.736Z,26.9
2018-04-26T14:06:31.180Z,26.8
2018-04-26T14:11:24.992Z,26.6
2018-04-26T14:16:18.836Z,26.7
2018-04-26T14:21:22.001Z,26.7
2018-04-26T14:26:13.939Z,26.7
2018-04-26T14:31:07.687Z,26.7
2018-04-26T14:36:02.195Z,26.7
2018-04-26T14:40:56.370Z,26.7
2018-04-26T14:45:50.175Z,26.7
2018-04-26T14:50:44.579Z,26.6
2018-04-26T14:55:38.476Z,26.5
2018-04-26T15:00:32.509Z,26.5
2018-04-26T15:05:26.362Z,26.5
2018-04-26T15:10:20.896Z,26.4
2018-04-26T15:15:13.952Z,26.2
2018-04-26T15:20:07.683Z,26.1
2018-04-26T15:25:01.301Z,26.1
2018-04-26T15:29:55.609Z,26.1
2018-04-26T15:34:49.799Z,25.9
2018-04-26T15:39:43.392Z,25.9
2018-04-26T15:44:38.050Z,25.9
2018-04-26T15:49:31.565Z,25.9
2018-04-26T15:54:26.159Z,25.9
2018-04-26T15:59:20.315Z,25.8
2018-04-26T16:04:14.059Z,25.8
2018-04-26T16:09:08.044Z,25.7
2018-04-26T16:14:02.809Z,25.8
2018-04-26T16:18:57.439Z,25.7
2018-04-26T16:23:51.887Z,25.5
2018-04-26T16:28:46.227Z,25.4
2018-04-26T16:33:40.003Z,25.3
2018-04-26T16:38:34.143Z,25.3
2018-04-26T16:43:28.194Z,25.2
2018-04-26T16:48:22.492Z,25.1
2018-04-26T16:53:16.850Z,25.1
2018-04-26T16:58:10.379Z,25
2018-04-26T17:03:04.151Z,24.8
2018-04-26T17:07:58.571Z,24.9
2018-04-26T17:12:52.741Z,24.8
2018-04-26T17:17:46.633Z,24.7
2018-04-26T17:22:40.696Z,24.5
2018-04-26T17:27:34.723Z,24.4
2018-04-26T17:32:28.477Z,24.4
2018-04-26T17:37:22.584Z,24.3
2018-04-26T17:42:16.734Z,24.1
2018-04-26T17:47:10.765Z,24.1
2018-04-26T17:52:04.762Z,23.9
2018-04-26T17:56:58.790Z,24
2018-04-26T18:01:52.451Z,23.9
2018-04-26T18:06:46.918Z,23.9
2018-04-26T18:11:41.234Z,23.7
2018-04-26T18:16:35.010Z,23.7
2018-04-26T18:21:29.112Z,23.6
2018-04-26T18:26:23.000Z,23.5
2018-04-26T18:31:17.501Z,23.4
2018-04-26T18:36:11.907Z,23.4
2018-04-26T18:41:06.288Z,23.3
2018-04-26T18:46:00.377Z,23.2
2018-04-26T18:50:54.426Z,23.2
2018-04-26T18:55:48.414Z,22.9
2018-04-26T19:00:42.108Z,23
2018-04-26T19:05:35.920Z,22.9
2018-04-26T19:10:30.011Z,22.8
2018-04-26T19:15:23.967Z,22.7
2018-04-26T19:20:18.138Z,22.6
2018-04-26T19:25:12.225Z,22.4
2018-04-26T19:30:06.680Z,22.5
2018-04-26T19:35:00.337Z,22.3
2018-04-26T19:39:54.332Z,22.3
2018-04-26T19:44:48.459Z,22.1
2018-04-26T19:49:42.520Z,22.2
2018-04-26T19:54:36.864Z,22
2018-04-26T19:59:31.344Z,22.1
2018-04-26T20:04:25.572Z,22
2018-04-26T20:09:19.785Z,21.8
2018-04-26T20:14:14.093Z,21.7
2018-04-26T20:19:08.147Z,21.7
2018-04-26T20:24:01.893Z,21.4
2018-04-26T20:28:56.042Z,21.5
2018-04-26T20:33:49.739Z,21.5
2018-04-26T20:38:44.168Z,21.4
2018-04-26T20:43:38.722Z,21.3
2018-04-26T20:48:33.137Z,21.2
2018-04-26T20:53:26.853Z,21.2
2018-04-26T20:58:21.412Z,21.2
2018-04-26T21:03:15.045Z,21.2
2018-04-26T21:08:09.262Z,21.2
2018-04-26T21:13:03.484Z,21.2
2018-04-26T21:17:58.021Z,21.1
2018-04-26T21:22:52.136Z,21.2
2018-04-26T21:27:46.101Z,21.1
2018-04-26T21:32:39.583Z,21.2
2018-04-26T21:37:34.048Z,21.1
2018-04-26T21:42:27.967Z,21
2018-04-26T21:47:21.870Z,21.1
2018-04-26T21:52:16.071Z,20.9
2018-04-26T21:57:10.092Z,20.9
2018-04-26T22:02:04.171Z,20.8
2018-04-26T22:06:58.227Z,20.6
2018-04-26T22:11:51.771Z,20.5
2018-04-26T22:16:45.759Z,20.4
2018-04-26T22:21:39.678Z,20.3
2018-04-26T22:26:33.720Z,20.3
2018-04-26T22:31:27.847Z,20.1
2018-04-26T22:36:21.899Z,19.9
2018-04-26T22:41:15.686Z,20
2018-04-26T22:46:09.679Z,19.9
2018-04-26T22:51:03.674Z,19.9
2018-04-26T22:55:57.519Z,19.9
2018-04-26T23:00:51.549Z,19.9
2018-04-26T23:05:45.646Z,19.8
2018-04-26T23:10:39.943Z,19.8
2018-04-26T23:15:34.332Z,19.8
2018-04-26T23:20:28.249Z,19.6
2018-04-26T23:25:22.109Z,19.8
2018-04-26T23:30:16.662Z,19.8
2018-04-26T23:35:10.914Z,19.6
2018-04-26T23:40:05.489Z,19.5
2018-04-26T23:44:59.357Z,19.5
2018-04-26T23:49:53.761Z,19.5
2018-04-26T23:54:47.623Z,19.5
2018-04-26T23:59:41.605Z,19.5
